Pine Canyon, Utah
Current Conditions -  °F | °C
As of 12:53 PM on Friday 24 Oct 2014 (Local Time) from KSLC Reporting Station
Clear Clear  
Wind Chill: 76°   Ceiling: Unl
Heat Index: 76°   Visibility: 10mi
Dew Point: 31°   Wind: 12mph
Humidity: 19%   Direction: 190°S
Pressure: 30.15"   Gusts: 18mph
Location:  40.5393°N, 112.353°W
Report Text: KSLC 241853Z 19010G16KT 10SM CLR 24/M01 A3015 RMK AO2 SLP171 T02441006
Loading
Personal Weather Stations






























Interactive Weather Map
Tropical Storm Tracking
New forecast layout! Learn more

10-Day Weather Forecast

Advertisements
Track Severe Weather on mobile